Timeline UpdatesTrip UpdatesNews PostsPvt PostsTravel TipsAdmin PostsConv PostsFollowed PostsChat RequestsBlog PostsPNR Posts

Disclaimer
Search
 
 
Fri Sep 19, 2014 07:17:35 ISTHomeTrainsΣChainsAtlasPNRForumGalleryNewsFAQTripsMembersLoginFeedback
No Recent News for this Train
Other Trains in the News **new
Latest...
.
Fri Jun 22, 2012 (10:25PM)
⇐ Return Journey: Train# 54811

54812/Jodhpur-Bhopal Passenger

Time-Table HAS CHANGED.
Sep 02 (12:23AM)
Change Departure Station:
Change Arrival Station:
Post a Train Travel TipPost a Train Travel Tip **new
Post a Comment/Question/Picture/VideoPost a Comment/Question/Picture/Video
Pantry/Catering
✕ NO Pantry Car
✕ NO Catering
Loco/Rake Reversals
SWM/Sawai Madhopur Junction (4); KOTA/Kota Junction (5);
RSA - Rake Sharing
RSA with 54821/22 bhildi jodhpur passenger
Rake/Coach Composition
LOCO, SLR, GS, GS, GS, S-1, S-2, S-3, GS, GS, GS, GS, GS, GSLRD, STORE DELIVERY VAN
Loco
WDM 2A upto Bina, Bina to Bhopal: WAM 4
News    PNR    Forum    Time-Table    Availability    Fare Chart    Map    Arr/Dep History    Trips    Gallery    ΣChains    X/O    Timeline    
Travel Time: 3h 29m    11 halts    Distance: 113 km    Avg Speed: 32 km/hr
Type: Passenger
Zone: NWR/North Western
Departs @ 07:21
Platform# ???
SMTWTFS
Kalhar/KAH 
Arrives @ 10:50
Platform# 5
SMTWTFS
Bhopal Junction/BPL 

11 halts. 17 intermediate Stations between Kalhar and Bhopal Junction

Show ALL intermediate Stations  Show Old Time-Table

#CodeStation NameX/OArrivesAvgDepartsAvgHaltPFDay#KmSpeedElevZoneAddress
1JUJodhpur Junction (5)  -08:05---1-879.428241mNWRJodhpur, Rajasthan
2RKBRaikabagh Palace Junction (2)X  08:10-08:12-2m--1-877.160237mNWRJodhpur, Rajasthan
3BNOBanarX  08:24-08:26-2m--1-865.255213mNWRBanar, Rajasthan
4JWLJajiwalX  08:35-08:37-2m--1-857.067228mNWRJodhpur, Rajasthan
5AASAsranada  08:45-08:47-2m--1-848.161251mNWRState Highway 58, Rajasthan
6KSWKheri Salwa  08:56-08:58-2m--1-839.064269mNWRJajiwal, Rajasthan
7PPRPipar Road Junction  09:04-09:06-2m--1-832.557272mNWRState Highway 58, Rajasthan
8SWFSathin Road  09:15-09:17-2m--1-824.062284mNWRUMED, Rajasthan
9UMEDUmedX  09:27-09:29-2m--1-813.756308mNWRJodhpur, Rajasthan
10KXGKharia Khangarh  09:40-09:42-2m--1-803.454310mNWRKharia Khangar, Rajasthan
11GOTNGotan (3)  09:50-09:52-2m--1-796.359323mNWRGotan, Rajasthan
12JOMJogi Magra (1)X  10:02-10:04-2m11-786.524335mNWRNagaur, Rajasthan
13MTDMerta Road Junction (4)  10:30-10:35-5m--1-776.1116322mNWRPhalodi, Rajasthan
14KQWKheduli (1)  10:43-10:45-2m--1-760.717307mNWRRen, Rajasthan
15RENRen  10:52-10:54-2m--1-758.763307mNWRNagaur, Rajasthan
16JACJalsu  11:07-11:09-2m--1-745.048321mNWRNagaur, Rajasthan
17JACNJalsu Nanak  11:16-11:18-2m--1-739.449331mNWRREN, Rajasthan
18DNADegana Junction (4)  11:27-11:30-3m--1-732.182339mNWRDegana, Rajasthan
19GCHGachhipura  11:41-11:43-2m--1-717.068362mNWRNagaur, Rajasthan
20BSRLBesroli  11:53-11:55-2m--1-705.771378mNWRNagaur, Rajasthan
21BOWBorawar  12:05-12:07-2m--1-693.839403mNWRBesrol, Rajasthan
22MKNMakrana Junction (2)  12:15-12:17-2m--1-688.757423mNWRMakrana, Rajasthan
23KMNCKuchaman City  12:32-12:34-2m--1-674.541404mNWRPalari, Rajasthan
24THMRThathana Mithri  12:41-12:43-2m--1-669.751388mNWRNawa City, Rajasthan
25NYKNaya KharadiaX  12:48-12:50-2m--1-665.536375mNWRMakrana, Rajasthan
26NACNawa City  13:01-13:03-2m--1-658.950390mNWRNawa, Rajasthan
27GVMRGovindi Marwar  13:14-13:16-2m--1-649.664373mNWRSambhar Lake, Rajasthan
28GAGudha (1)X  13:26-13:28-2m11-638.946365mNWRPhulera, Rajasthan
29SBRSambhar LakeO  13:38-13:40-2m--1-631.25368mNWRSambhar, Rajasthan
30FLPhulera Junction (5)X  15:00-15:05-5m--1-624.174386mNWRPhulera, Rajasthan
31HDAHirnoda  15:12-15:13-1m--1-615.440400mNWRJaipur, Rajasthan
32DHNDDhinda  15:19-15:20-1m--1-611.448386mNWRMDR 59, Rajasthan
33JOBAsalpur JobnerX  15:27-15:28-1m--1-605.756379mNWRJaipur, Rajasthan
34BOBSBobas  15:36-15:37-1m--1-598.352396mNWRJaipur, Rajasthan
35SHNXSheo Singh Pura  15:45-15:46-1m--1-591.438411mNWRJaipur, Rajasthan
36DNKDhanakya  15:52-15:53-1m--1-587.646418mNWRJaipur, Rajasthan
37BDYKBindayaka  15:59-16:00-1m--1-583.052411mNWRJaipur, Rajasthan
38KKUKanakpuraXO  16:06-16:07-1m--1-577.916429mNWRJaipur, Rajasthan
39JPJaipur Junction (7)X  16:45 16:40-17:45 16:50-60 10m41-569.045434mNWRJaipur, Rajasthan
40DPADurgapura (3)XO  17:54 17:00-17:55 17:53-1 53m11-561.642400mNWRJaipur, Rajasthan
41SNGNSanganer  18:04 18:00-18:05 18:02-1 2m11-556.777383mNWRJaipur, Rajasthan
42SASShivdaspura Padampura  18:20 18:15-18:21 18:17-1 2m11-540.169335mNWRJaipur, Rajasthan
43CKSChaksuX  18:32 18:29-18:33-1 4m--1-526.352319mNWRDist. Jaipur, Rajasthan
44CHNNChannani  18:46 18:45-18:47-1 2m--1-515.978326mNWRChaksu, Rajasthan
45BNLWBansthali Niwai (2)  18:58 18:57-18:59-1 2m--1-502.968315mNWRMaharajpura, Rajasthan
46SRASSiras  19:13-19:14-1m--1-487.261270mNWRIsarda, Rajasthan
47ISAIsarda  19:24-19:25-1m--1-477.057271mNWRMDR 111, Rajasthan
48SURLSureli  19:34-19:35-1m--1-468.4110258mNWRDevpura, Rajasthan
49CKBChauth ka Barwara (1)X  19:44 19:40-19:45-1 5m11-459.227272mNWRSawai Madhopur, Rajasthan
50DPZDevpura (1)X  20:11 20:10-20:12-1 2m11-448.250271mNWRSawai Madhopur, Rajasthan
51SWMSawai Madhopur Junction (4)O↵¶20:25-20:40-15m31-437.349266mWCRSawai Madhopur, Rajasthan
52RWJRawania DungarX  20:59-21:00-1m--1-421.851266mWCRSawai Madhopur, Rajasthan
53AMLIAmli  21:09-21:10-1m--1-414.287233mWCRSawai Madhopur, Rajasthan
54IDGIndargarh Sumerganj Mandi (2)  21:19-21:20-1m--1-401.173247mWCRIndargarh, Rajasthan
55LKELakheri (3)O  21:29-21:30-1m--1-390.167228mWCRBundi, Rajasthan
56KPZKaprenX  21:54-21:55-1m--1-363.267234mWCRKota - Lalsot Mega Highway, Rajasthan
57KPTNKeshorai PatanO  22:13-22:14-1m--1-343.026243mWCRSH 33, Rajasthan
58KOTAKota Junction (5)22:45-22:55-10m41-329.562256mWCRKota, Rajasthan
59ATHAntah  23:38-23:40-2m--1-284.834246mWCRAntah, Rajasthan
60BAZBaranX  00:18-00:20-2m--2-263.243261mWCRBaran, Rajasthan
61ATRUAtru (1)  01:01-01:03-2m12-234.060288mWCRAtru, Rajasthan
62SYLSalpura  01:17-01:18-1m--2-220.071311mWCRKawari, Rajasthan
63CAGChhabra Gugor  01:31-01:33-2m--2-204.532342mWCRBaran, Rajasthan
64RTARuthiyai Junction (2)  02:45-02:50-5m--2-165.954414mWCRRuthiyai, Madhya Pradesh
65MUGAMahugaraX  03:05-03:07-2m--2-152.425501mWCRRuthiyai, Madhya Pradesh
66GUNAGuna Junction (3)X  03:25-03:35-10m--2-145.037477mWCRJn Point Indore/Gwalior/Bina/Kota, Madhya Pradesh
67PGAPagara  03:57-03:59-2m--2-131.546494mWCRGuna, Madhya Pradesh
68SHDRShadhoragaon  04:19-04:21-2m--2-116.161504mWCRGuna, Madhya Pradesh
69RIKARatikheda  04:29-04:31-2m--2-108.048526mWCRGuna, Madhya Pradesh
70ASKNAshok Nagar (2)  04:40-04:42-2m--2-100.854502mWCRAshoknagar, Madhya Pradesh
71ORROrr  04:56-04:58-2m--2-88.159450mWCRAshoknagar, Madhya Pradesh
72PIAPipraigaon (3)  05:18 05:12-05:20 05:14-2m22-74.459451mWCRAshoknagar, Madhya Pradesh
73GVBGuneru Bamori (2)  05:33 05:25-05:35 05:27-2m--2-63.563427mWCRAshoknagar, Madhya Pradesh
74MNVMungaoli (2)X  05:43 05:35-05:45 05:37-2m--2-55.153403mWCRAshoknagar, Madhya Pradesh
75KXBKanjiya  05:55 05:46-05:57 05:48-2m--2-47.182390mWCRMungaoli, Madhya Pradesh
76SRKISemarkheri  06:03 05:54-06:05 05:56-2m--2-38.951412mWCRBina, Madhya Pradesh
77MDVKMahadeokhedi  06:13 06:02-06:15 06:04-2m--2-33.813423mWCRBina, Madhya Pradesh
78BINABina Junction (5)X  06:40-06:50-10m22-26.170414mWCRJn Pt - KATNI/GUNA/ BPL/JHS, Madhya Pradesh
79KIKAKurwai Kethora (2)  06:58-07:00-2m--2-16.853407mWCRBina, Madhya Pradesh
80MABAMandi Bamora (3)X  07:09-07:11-2m22-8.866413mWCRState Highway 14, Madhya Pradesh
81KAHKalhar (3)»  07:19-07:21-2m--20.066409mWCRSagar, Madhya Pradesh
82BETBareth (4)XO  07:30-07:32-2m--29.825418mWCRState Highway 19, Madhya Pradesh
83BAQGanj Basoda (4)XO  07:56-07:58-2m2219.766 WCRVidisha, Madhya Pradesh
84PAIPabai (3)XO  08:06-08:08-2m--228.472 WCRVidisha, Madhya Pradesh
85GLGGulabhGanj (3)XO  08:16-08:18-2m2238.056 WCRVidisha, Madhya Pradesh
86SUMRSumer (3)X  08:26-08:28-2m--245.540 WCRVidisha, Madhya Pradesh
87BHSVidisha (3)XO  09:09 08:48-09:11 08:50-2m2259.023 WCRVidisha, Madhya Pradesh
88SCISanchi (2)X  09:23 09:15-09:25 09:17-2m1268.455428mWCRRaisen, Madhya Pradesh
89SMTSalamatpur (3)XO  09:33 09:25-09:35 09:27-2m1275.731 WCRRaisen, Madhya Pradesh
90DWGDewanGanj (3)XO  09:43 09:45-09:45 09:47-2m2285.059 WCRRaisen, Madhya Pradesh
91BVBBhadbhadaghat (2)X  09:56-09:58-2m1293.830474mWCRVidisha Road Bhopal, Madhya Pradesh
92SUWSukhisewaniyan (3)XO  10:08 10:13-10:10 10:15-2m22101.219508mWCRBhopal, Madhya Pradesh
93BPLBhopal Junction (6)•  10:50--52112.5-497mWCRBhopal, Madhya Pradesh
Scroll to Top
Scroll to Bottom